createdAt,value
2022-11-23T00:01:18.729Z,39.47
2022-11-23T00:03:47.348Z,38.97
2022-11-23T00:06:15.177Z,38.50
2022-11-23T00:08:43.423Z,39.80
2022-11-23T00:11:11.066Z,39.57
2022-11-23T00:13:40.827Z,38.63
2022-11-23T00:16:08.671Z,41.67
2022-11-23T00:18:36.462Z,39.20
2022-11-23T00:21:06.910Z,39.40
2022-11-23T00:23:34.819Z,41.53
2022-11-23T00:26:02.465Z,39.20
2022-11-23T00:28:30.574Z,39.27
2022-11-23T00:30:59.637Z,39.13
2022-11-23T00:33:27.452Z,38.90
2022-11-23T00:36:01.815Z,42.57
2022-11-23T00:38:31.980Z,39.77
2022-11-23T00:41:00.731Z,40.17
2022-11-23T00:43:28.837Z,41.90
2022-11-23T00:46:04.785Z,39.10
2022-11-23T00:48:32.738Z,39.07
2022-11-23T00:51:00.733Z,41.60
2022-11-23T00:53:28.494Z,39.57
2022-11-23T00:55:57.381Z,43.10
2022-11-23T00:58:25.530Z,41.37
2022-11-23T01:01:02.807Z,42.20
2022-11-23T01:03:33.113Z,40.43
2022-11-23T01:06:05.319Z,41.67
2022-11-23T01:08:33.407Z,42.40
2022-11-23T01:11:01.783Z,43.20
2022-11-23T01:13:30.363Z,42.07
2022-11-23T01:15:58.335Z,49.30
2022-11-23T01:18:26.077Z,49.83
2022-11-23T01:20:55.344Z,41.60
2022-11-23T01:23:23.118Z,38.90
2022-11-23T01:25:55.676Z,41.23
2022-11-23T01:28:24.887Z,41.30
2022-11-23T01:30:52.729Z,41.17
2022-11-23T01:33:24.580Z,41.20
2022-11-23T01:35:52.342Z,42.40
2022-11-23T01:38:22.472Z,40.07
2022-11-23T01:40:51.082Z,38.57
2022-11-23T01:43:19.303Z,39.07
2022-11-23T01:45:57.303Z,40.00
2022-11-23T01:48:27.662Z,38.60
2022-11-23T01:50:57.556Z,38.87
2022-11-23T01:53:27.735Z,38.87
2022-11-23T01:55:56.130Z,38.50
2022-11-23T01:58:24.394Z,37.80
2022-11-23T02:00:52.327Z,37.87
2022-11-23T02:03:20.071Z,37.70
2022-11-23T02:05:50.818Z,38.23
2022-11-23T02:08:20.105Z,39.40
2022-11-23T02:10:49.343Z,38.83
2022-11-23T02:13:18.828Z,41.87
2022-11-23T02:15:47.023Z,37.90
2022-11-23T02:18:19.638Z,37.67
2022-11-23T02:20:50.552Z,36.37
2022-11-23T02:23:24.337Z,37.03
2022-11-23T02:26:12.965Z,36.80
2022-11-23T02:28:44.554Z,36.43
2022-11-23T02:31:12.382Z,34.93
2022-11-23T02:33:40.046Z,37.87
2022-11-23T02:36:31.676Z,38.20
2022-11-23T02:39:08.128Z,37.33
2022-11-23T02:41:36.964Z,35.00
2022-11-23T02:44:08.500Z,35.63
2022-11-23T02:46:36.347Z,36.00
2022-11-23T02:49:03.949Z,34.50
2022-11-23T02:51:31.817Z,32.70
2022-11-23T02:53:59.435Z,33.50
2022-11-23T02:56:27.712Z,35.63
2022-11-23T02:58:55.385Z,34.30
2022-11-23T03:01:25.649Z,34.17
2022-11-23T03:03:53.576Z,35.40
2022-11-23T03:06:21.280Z,37.00
2022-11-23T03:08:49.781Z,34.70
2022-11-23T03:11:17.932Z,34.77
2022-11-23T03:13:46.286Z,35.30
2022-11-23T03:16:14.714Z,36.50
2022-11-23T03:18:43.888Z,35.43
2022-11-23T03:21:11.825Z,34.07
2022-11-23T03:23:39.978Z,34.97
2022-11-23T03:26:13.162Z,34.30
2022-11-23T03:28:53.563Z,35.23
2022-11-23T03:31:21.559Z,34.80
2022-11-23T03:33:51.467Z,34.20
2022-11-23T03:36:19.494Z,36.83
2022-11-23T03:38:49.327Z,34.87
2022-11-23T03:41:30.478Z,35.33
2022-11-23T03:44:00.605Z,37.00
2022-11-23T03:46:28.338Z,36.07
2022-11-23T03:48:57.990Z,34.87
2022-11-23T03:51:26.846Z,37.10
2022-11-23T03:53:55.776Z,34.63
2022-11-23T03:56:23.522Z,36.20
2022-11-23T03:58:51.438Z,34.57
2022-11-23T04:01:19.647Z,38.83
2022-11-23T04:03:51.671Z,37.40
2022-11-23T04:06:25.922Z,35.83
2022-11-23T04:09:10.606Z,39.03
2022-11-23T04:11:48.470Z,39.73
2022-11-23T04:14:17.508Z,36.23
2022-11-23T04:16:45.272Z,37.50
2022-11-23T04:19:13.057Z,36.63
2022-11-23T04:21:42.426Z,36.70
2022-11-23T04:24:10.610Z,38.57
2022-11-23T04:26:40.443Z,36.47
2022-11-23T04:29:09.937Z,37.33
2022-11-23T04:31:41.628Z,36.97
2022-11-23T04:34:13.559Z,37.87
2022-11-23T04:36:42.892Z,37.40
2022-11-23T04:39:12.475Z,35.60
2022-11-23T04:42:01.356Z,38.33
2022-11-23T04:44:30.857Z,37.40
2022-11-23T04:47:03.401Z,36.57
2022-11-23T04:49:32.800Z,36.93
2022-11-23T04:52:02.170Z,36.50
2022-11-23T04:54:36.197Z,39.00
2022-11-23T04:57:08.016Z,36.43
2022-11-23T04:59:36.441Z,37.17
2022-11-23T05:02:04.227Z,35.60
2022-11-23T05:04:44.484Z,38.57
2022-11-23T05:07:14.904Z,36.70
2022-11-23T05:09:46.394Z,38.77
2022-11-23T05:12:17.668Z,36.37
2022-11-23T05:14:46.209Z,36.70
2022-11-23T05:17:19.162Z,35.90
2022-11-23T05:19:48.856Z,36.13
2022-11-23T05:22:18.006Z,37.50
2022-11-23T05:24:45.691Z,39.23
2022-11-23T05:27:17.691Z,37.27
2022-11-23T05:29:46.088Z,36.30
2022-11-23T05:32:14.930Z,37.00
2022-11-23T05:34:43.633Z,35.67
2022-11-23T05:37:13.881Z,34.60
2022-11-23T05:39:52.785Z,35.47
2022-11-23T05:42:21.291Z,34.30
2022-11-23T05:44:49.465Z,34.73
2022-11-23T05:47:22.714Z,33.13
2022-11-23T05:49:50.606Z,36.67
2022-11-23T05:52:22.219Z,35.30
2022-11-23T05:54:50.053Z,33.50
2022-11-23T05:57:19.606Z,34.53
2022-11-23T05:59:51.032Z,34.57
2022-11-23T06:02:23.629Z,32.80
2022-11-23T06:04:56.440Z,33.43
2022-11-23T06:07:35.800Z,34.97
2022-11-23T06:10:08.646Z,33.50
2022-11-23T06:12:41.453Z,33.50
2022-11-23T06:15:14.325Z,31.47
2022-11-23T06:17:42.324Z,31.80
2022-11-23T06:20:15.744Z,31.87
2022-11-23T06:22:52.638Z,32.50
2022-11-23T06:25:22.167Z,31.90
2022-11-23T06:28:27.137Z,32.97
2022-11-23T06:30:56.697Z,32.60
2022-11-23T06:33:25.977Z,34.47
2022-11-23T06:35:55.241Z,32.17
2022-11-23T06:38:24.730Z,34.17
2022-11-23T06:41:00.756Z,35.50
2022-11-23T06:43:32.126Z,32.93
2022-11-23T06:46:03.974Z,34.93
2022-11-23T06:48:32.945Z,33.30
2022-11-23T06:51:01.819Z,34.40
2022-11-23T06:53:31.458Z,34.63
2022-11-23T06:56:03.709Z,33.73
2022-11-23T06:58:33.994Z,32.53
2022-11-23T07:01:06.392Z,35.00
2022-11-23T07:03:40.618Z,37.10
2022-11-23T07:06:20.292Z,36.20
2022-11-23T07:08:50.930Z,33.73
2022-11-23T07:11:30.025Z,32.17
2022-11-23T07:13:59.226Z,33.13
2022-11-23T07:16:29.145Z,32.73
2022-11-23T07:18:58.654Z,33.40
2022-11-23T07:21:26.812Z,31.30
2022-11-23T07:23:54.557Z,34.97
2022-11-23T07:26:22.190Z,32.23
2022-11-23T07:28:50.422Z,33.13
2022-11-23T07:31:19.547Z,32.53
2022-11-23T07:33:47.821Z,30.80
2022-11-23T07:36:15.743Z,32.30
2022-11-23T07:38:46.080Z,32.77
2022-11-23T07:41:16.705Z,30.40
2022-11-23T07:44:16.963Z,42.27
2022-11-23T07:46:47.286Z,37.23
2022-11-23T07:49:15.194Z,31.50
2022-11-23T07:51:42.803Z,30.13
2022-11-23T07:54:10.574Z,32.07
2022-11-23T07:56:38.255Z,29.97
2022-11-23T07:59:05.924Z,30.60
2022-11-23T08:01:33.626Z,29.90
2022-11-23T08:04:03.119Z,29.60
2022-11-23T08:06:31.635Z,31.90
2022-11-23T08:08:59.371Z,30.57
2022-11-23T08:11:27.294Z,28.50
2022-11-23T08:13:54.920Z,29.07
2022-11-23T08:16:22.654Z,30.17
2022-11-23T08:18:51.253Z,28.17
2022-11-23T08:21:20.278Z,31.13
2022-11-23T08:23:48.209Z,29.57
2022-11-23T08:26:16.535Z,30.70
2022-11-23T08:28:44.663Z,29.00
2022-11-23T08:31:14.501Z,28.30
2022-11-23T08:33:42.555Z,27.40
2022-11-23T08:36:10.608Z,28.33
2022-11-23T08:38:39.938Z,27.00
2022-11-23T08:41:07.996Z,27.73
2022-11-23T08:43:35.924Z,27.10
2022-11-23T08:46:07.956Z,26.00
2022-11-23T08:48:37.398Z,26.67
2022-11-23T08:51:05.182Z,24.17
2022-11-23T09:02:04.028Z,24.80
2022-11-23T09:04:32.799Z,25.17
2022-11-23T09:07:00.488Z,26.80
2022-11-23T09:09:28.414Z,24.53
2022-11-23T09:11:56.026Z,26.37
2022-11-23T09:14:23.848Z,23.90
2022-11-23T09:16:51.809Z,23.70
2022-11-23T09:19:21.860Z,22.33
2022-11-23T09:21:49.459Z,21.10
2022-11-23T09:24:17.495Z,23.23
2022-11-23T09:26:45.219Z,22.97
2022-11-23T09:29:12.972Z,21.87
2022-11-23T09:31:40.597Z,22.40
2022-11-23T09:34:08.210Z,23.07
2022-11-23T09:36:37.344Z,22.30
2022-11-23T09:39:05.313Z,22.50
2022-11-23T09:41:44.187Z,22.13
2022-11-23T09:44:19.612Z,22.83
2022-11-23T09:47:04.054Z,21.60
2022-11-23T09:49:34.282Z,22.20
2022-11-23T09:52:03.319Z,22.07
2022-11-23T09:54:32.940Z,21.50
2022-11-23T09:57:02.199Z,20.80
2022-11-23T09:59:37.788Z,21.63
2022-11-23T10:02:06.483Z,21.33
2022-11-23T10:04:35.850Z,21.07
2022-11-23T10:11:01.421Z,21.13
2022-11-23T10:13:35.309Z,21.73
2022-11-23T10:16:25.870Z,22.30
2022-11-23T10:18:56.918Z,20.13
2022-11-23T10:21:30.234Z,19.53
2022-11-23T10:24:05.182Z,19.20
2022-11-23T10:26:36.096Z,19.53
2022-11-23T10:29:10.561Z,20.10
2022-11-23T10:31:38.753Z,20.13
2022-11-23T10:34:11.569Z,20.17
2022-11-23T10:36:39.935Z,21.50
2022-11-23T10:39:15.019Z,20.57
2022-11-23T10:41:45.387Z,19.40
2022-11-23T10:44:17.919Z,20.10
2022-11-23T10:46:46.263Z,21.20
2022-11-23T10:49:19.050Z,19.40
2022-11-23T10:51:51.807Z,20.77
2022-11-23T10:54:22.309Z,22.03
2022-11-23T10:56:52.815Z,21.67
2022-11-23T10:59:31.700Z,23.07
2022-11-23T11:02:20.328Z,20.97
2022-11-23T11:04:49.939Z,19.57
2022-11-23T11:07:22.858Z,19.93
2022-11-23T11:09:51.743Z,22.20
2022-11-23T11:12:20.890Z,18.67
2022-11-23T11:15:10.857Z,18.07
2022-11-23T11:17:39.972Z,18.30
2022-11-23T11:20:22.611Z,17.27
2022-11-23T11:22:50.774Z,19.37
2022-11-23T11:25:28.179Z,19.13
2022-11-23T11:27:57.662Z,18.70
2022-11-23T11:30:26.322Z,16.17
2022-11-23T11:32:57.281Z,17.40
2022-11-23T11:35:26.918Z,18.20
2022-11-23T11:37:56.974Z,18.10
2022-11-23T11:40:27.346Z,18.43
2022-11-23T11:42:57.859Z,17.93
2022-11-23T11:45:29.039Z,17.87
2022-11-23T11:47:59.930Z,16.33
2022-11-23T11:50:32.076Z,19.10
2022-11-23T11:53:03.127Z,17.03
2022-11-23T11:55:34.421Z,17.63
2022-11-23T11:58:03.816Z,17.93
2022-11-23T12:00:35.295Z,16.87
2022-11-23T12:03:07.981Z,16.37
2022-11-23T12:05:39.090Z,17.47
2022-11-23T12:08:09.292Z,16.83
2022-11-23T12:10:39.762Z,17.37
2022-11-23T12:13:10.392Z,17.00
2022-11-23T12:15:49.634Z,17.53
2022-11-23T12:18:29.750Z,18.00
2022-11-23T12:21:00.205Z,19.23
2022-11-23T12:23:32.918Z,16.63
2022-11-23T12:26:09.181Z,19.27
2022-11-23T12:28:44.728Z,18.03
2022-11-23T12:31:17.835Z,18.20
2022-11-23T12:36:36.218Z,19.23
2022-11-23T12:39:07.903Z,17.53
2022-11-23T12:41:40.165Z,17.17
2022-11-23T12:44:20.037Z,16.50
2022-11-23T12:46:54.954Z,15.47
2022-11-23T12:49:29.420Z,16.77
2022-11-23T12:52:03.924Z,15.70
2022-11-23T12:54:44.840Z,17.53
2022-11-23T12:57:15.496Z,15.17
2022-11-23T12:59:45.033Z,16.23
2022-11-23T13:02:20.136Z,15.20
2022-11-23T13:05:01.009Z,15.20
2022-11-23T13:07:46.140Z,16.67
2022-11-23T13:10:21.828Z,16.07
2022-11-23T13:12:58.700Z,16.40
2022-11-23T13:15:36.416Z,16.97
2022-11-23T13:18:11.371Z,15.30
2022-11-23T13:25:00.392Z,14.57
2022-11-23T13:27:44.818Z,15.30
2022-11-23T13:30:35.575Z,15.37
2022-11-23T13:33:34.299Z,15.40
2022-11-23T13:36:12.493Z,15.80
2022-11-23T13:42:48.471Z,14.70
2022-11-23T13:45:24.741Z,15.27
2022-11-23T13:48:49.074Z,15.20
2022-11-23T13:51:09.409Z,14.83
2022-11-23T13:53:38.287Z,15.53
2022-11-23T13:56:33.007Z,15.80
2022-11-23T13:59:20.804Z,15.00
2022-11-23T14:02:00.070Z,16.70
2022-11-23T14:04:28.481Z,16.00
2022-11-23T14:06:58.349Z,14.30
2022-11-23T14:09:29.348Z,14.87
2022-11-23T14:12:01.597Z,14.53
2022-11-23T14:14:32.433Z,15.30
2022-11-23T14:17:11.687Z,14.90
2022-11-23T14:19:43.922Z,15.23
2022-11-23T14:22:17.390Z,15.00
2022-11-23T14:25:00.676Z,15.47
2022-11-23T14:27:49.389Z,15.33
2022-11-23T14:30:27.710Z,16.33
2022-11-23T14:33:04.039Z,13.70
2022-11-23T14:35:34.861Z,14.23
2022-11-23T14:38:10.381Z,14.50
2022-11-23T14:40:46.864Z,14.90
2022-11-23T14:43:17.421Z,14.20
2022-11-23T14:45:45.422Z,14.20
2022-11-23T14:48:23.250Z,14.50
2022-11-23T14:50:58.428Z,13.40
2022-11-23T14:53:29.869Z,13.67
2022-11-23T14:55:58.114Z,14.90
2022-11-23T14:58:28.310Z,15.17
2022-11-23T15:01:01.292Z,15.10
2022-11-23T15:06:19.384Z,15.40
2022-11-23T15:08:51.938Z,15.30
2022-11-23T15:11:22.362Z,16.27
2022-11-23T15:13:51.286Z,15.30
2022-11-23T15:16:23.429Z,14.60
2022-11-23T15:18:51.917Z,15.77
2022-11-23T15:21:26.536Z,16.37
2022-11-23T15:23:57.048Z,15.43
2022-11-23T15:26:46.713Z,16.60
2022-11-23T15:29:28.868Z,15.63
2022-11-23T15:32:22.490Z,15.77
2022-11-23T15:34:45.358Z,17.50
2022-11-23T15:37:13.595Z,18.17
2022-11-23T15:39:42.737Z,17.40
2022-11-23T15:42:11.905Z,17.43
2022-11-23T15:44:39.590Z,17.70
2022-11-23T15:47:09.301Z,17.20
2022-11-23T15:49:38.189Z,17.70
2022-11-23T15:52:06.532Z,18.20
2022-11-23T15:54:35.933Z,18.47
2022-11-23T15:57:08.521Z,16.97
2022-11-23T15:59:40.953Z,17.20
2022-11-23T16:02:14.221Z,16.70
2022-11-23T16:04:44.307Z,17.13
2022-11-23T16:07:19.220Z,17.70
2022-11-23T16:09:51.756Z,23.93
2022-11-23T16:12:23.394Z,17.87
2022-11-23T16:14:51.118Z,19.00
2022-11-23T16:17:19.945Z,17.00
2022-11-23T16:19:48.515Z,17.77
2022-11-23T16:22:21.567Z,31.57
2022-11-23T16:24:51.582Z,25.40
2022-11-23T16:27:25.147Z,22.67
2022-11-23T16:29:53.302Z,21.47
2022-11-23T16:32:25.523Z,20.03
2022-11-23T16:34:53.342Z,19.87
2022-11-23T16:37:21.125Z,19.90
2022-11-23T16:39:49.399Z,19.53
2022-11-23T16:42:17.830Z,20.30
2022-11-23T16:44:47.022Z,21.90
2022-11-23T16:47:21.001Z,22.17
2022-11-23T16:49:49.084Z,24.83
2022-11-23T16:52:16.800Z,20.60
2022-11-23T16:54:45.238Z,23.17
2022-11-23T16:57:19.464Z,24.80
2022-11-23T16:59:49.100Z,23.47
2022-11-23T17:02:17.578Z,23.97
2022-11-23T17:04:45.560Z,27.60
2022-11-23T17:07:13.641Z,24.50
2022-11-23T17:09:43.621Z,26.10
2022-11-23T17:16:07.533Z,26.67
2022-11-23T17:18:35.906Z,25.50
2022-11-23T17:21:03.547Z,26.13
2022-11-23T17:23:31.766Z,27.00
2022-11-23T17:25:59.678Z,26.97
2022-11-23T17:28:28.749Z,29.90
2022-11-23T17:30:56.541Z,29.20
2022-11-23T17:33:25.638Z,27.83
2022-11-23T17:35:57.216Z,29.30
2022-11-23T17:38:26.389Z,28.77
2022-11-23T17:40:54.074Z,29.37
2022-11-23T17:43:22.154Z,31.40
2022-11-23T17:45:50.221Z,30.80
2022-11-23T17:48:19.048Z,31.80
2022-11-23T17:50:48.969Z,32.00
2022-11-23T17:53:20.032Z,32.03
2022-11-23T17:55:50.640Z,30.67
2022-11-23T17:58:18.870Z,31.40
2022-11-23T18:00:46.797Z,32.20
2022-11-23T18:03:14.812Z,32.57
2022-11-23T18:05:42.597Z,32.80
2022-11-23T18:08:11.920Z,32.67
2022-11-23T18:10:39.654Z,31.87
2022-11-23T18:13:07.367Z,33.57
2022-11-23T18:15:35.286Z,33.80
2022-11-23T18:18:05.023Z,33.50
2022-11-23T18:20:33.089Z,34.00
2022-11-23T18:27:36.431Z,33.23
2022-11-23T18:30:04.361Z,35.53
2022-11-23T18:32:32.013Z,34.13
2022-11-23T18:35:00.263Z,34.00
2022-11-23T18:37:27.856Z,33.70
2022-11-23T18:39:56.560Z,38.40
2022-11-23T18:42:24.372Z,41.00
2022-11-23T18:44:53.438Z,34.30
2022-11-23T18:47:21.180Z,34.33
2022-11-23T18:49:49.568Z,33.50
2022-11-23T18:52:18.036Z,34.13
2022-11-23T18:54:45.717Z,34.93
2022-11-23T18:57:16.882Z,35.80
2022-11-23T19:00:02.167Z,35.83
2022-11-23T19:02:32.465Z,36.67
2022-11-23T19:05:00.579Z,35.20
2022-11-23T19:07:28.666Z,35.30
2022-11-23T19:09:56.628Z,34.53
2022-11-23T19:12:24.318Z,35.83
2022-11-23T19:14:52.082Z,35.73
2022-11-23T19:17:20.013Z,36.53
2022-11-23T19:19:49.185Z,36.80
2022-11-23T19:22:17.068Z,36.97
2022-11-23T19:24:44.914Z,36.20
2022-11-23T19:27:12.705Z,38.30
2022-11-23T19:29:40.575Z,37.80
2022-11-23T19:32:08.282Z,38.83
2022-11-23T19:34:35.996Z,41.43
2022-11-23T19:37:05.112Z,42.20
2022-11-23T19:39:33.463Z,40.30
2022-11-23T19:42:01.361Z,40.10
2022-11-23T19:44:29.343Z,40.93
2022-11-23T19:46:57.058Z,42.80
2022-11-23T19:49:24.851Z,40.63
2022-11-23T19:51:53.684Z,41.93
2022-11-23T19:54:22.996Z,42.17
2022-11-23T19:56:51.364Z,42.50
2022-11-23T19:59:19.029Z,41.50
2022-11-23T20:01:46.857Z,44.67
2022-11-23T20:04:14.629Z,44.40
2022-11-23T20:06:43.105Z,43.10
2022-11-23T20:09:11.727Z,44.00
2022-11-23T20:11:41.383Z,42.83
2022-11-23T20:14:11.839Z,45.50
2022-11-23T20:16:39.851Z,44.67
2022-11-23T20:19:08.228Z,43.20
2022-11-23T20:21:37.045Z,47.47
2022-11-23T20:24:06.023Z,45.50
2022-11-23T20:26:34.484Z,44.87
2022-11-23T20:29:03.973Z,46.00
2022-11-23T20:31:51.532Z,45.93
2022-11-23T20:34:22.962Z,44.93
2022-11-23T20:36:53.415Z,46.40
2022-11-23T20:39:22.002Z,44.47
2022-11-23T20:41:49.792Z,45.73
2022-11-23T20:44:18.971Z,45.60
2022-11-23T20:47:01.866Z,44.60
2022-11-23T20:49:31.529Z,45.87
2022-11-23T20:51:59.553Z,47.20
2022-11-23T20:54:27.581Z,44.50
2022-11-23T20:56:55.348Z,46.50
2022-11-23T20:59:24.604Z,46.10
2022-11-23T21:01:52.337Z,51.37
2022-11-23T21:04:20.091Z,45.40
2022-11-23T21:06:47.750Z,47.43
2022-11-23T21:09:16.971Z,46.80
2022-11-23T21:12:03.104Z,47.87
2022-11-23T21:14:32.911Z,49.43
2022-11-23T21:17:01.388Z,47.97
2022-11-23T21:19:29.805Z,48.60
2022-11-23T21:21:58.289Z,48.30
2022-11-23T21:24:26.850Z,47.60
2022-11-23T21:26:54.928Z,47.03
2022-11-23T21:29:22.974Z,50.37
2022-11-23T21:31:52.430Z,47.37
2022-11-23T21:34:20.754Z,46.80
2022-11-23T21:36:49.199Z,48.60
2022-11-23T21:39:17.328Z,48.90
2022-11-23T21:41:45.505Z,52.03
2022-11-23T21:44:13.447Z,52.27
2022-11-23T21:46:41.758Z,51.23
2022-11-23T21:49:11.508Z,51.07
2022-11-23T21:51:39.404Z,55.43
2022-11-23T21:54:09.738Z,57.17
2022-11-23T21:56:37.885Z,58.07
2022-11-23T21:59:05.850Z,61.97
2022-11-23T22:01:34.720Z,61.10
2022-11-23T22:04:03.626Z,60.47
2022-11-23T22:06:32.868Z,61.63
2022-11-23T22:09:00.945Z,62.43
2022-11-23T22:11:29.555Z,67.80
2022-11-23T22:14:00.277Z,63.40
2022-11-23T22:16:29.006Z,67.63
2022-11-23T22:18:57.370Z,71.70
2022-11-23T22:21:25.940Z,74.77
2022-11-23T22:23:55.645Z,68.07
2022-11-23T22:26:23.962Z,70.73
2022-11-23T22:28:52.075Z,69.83
2022-11-23T22:31:21.547Z,74.93
2022-11-23T22:33:50.102Z,72.73
2022-11-23T22:36:19.017Z,74.13
2022-11-23T22:38:47.101Z,74.50
2022-11-23T22:41:17.743Z,73.30
2022-11-23T22:43:45.660Z,83.50
2022-11-23T22:46:14.295Z,76.33
2022-11-23T22:48:43.015Z,76.70
2022-11-23T22:51:11.659Z,76.93
2022-11-23T22:53:44.534Z,76.40
2022-11-23T22:56:14.115Z,79.83
2022-11-23T22:58:43.678Z,81.23
2022-11-23T23:01:14.652Z,76.73
2022-11-23T23:03:43.298Z,77.63
2022-11-23T23:06:15.084Z,78.97
2022-11-23T23:08:42.901Z,85.03
2022-11-23T23:11:11.078Z,79.10
2022-11-23T23:13:39.246Z,87.43
2022-11-23T23:16:11.850Z,81.73
2022-11-23T23:18:40.985Z,82.40
2022-11-23T23:21:11.138Z,83.60
2022-11-23T23:23:39.613Z,85.00
2022-11-23T23:26:07.709Z,85.50
2022-11-23T23:28:36.244Z,80.83
2022-11-23T23:31:04.503Z,82.80
2022-11-23T23:33:33.967Z,82.80
2022-11-23T23:36:04.395Z,79.73
2022-11-23T23:38:34.968Z,80.10
2022-11-23T23:41:02.746Z,75.70
2022-11-23T23:43:30.954Z,79.20
2022-11-23T23:45:59.874Z,78.83
2022-11-23T23:48:29.676Z,76.67
2022-11-23T23:51:05.578Z,77.93
2022-11-23T23:53:33.748Z,79.07
2022-11-23T23:56:02.267Z,85.83
2022-11-23T23:58:30.762Z,77.83
